Time;durP1;ratioP1;P1;durP2;ratioP2;P2;SDS_P1;SDS_P2;PMS_P1;PMS_P2;Temp;Humidity;BMP_temperature;BMP_pressure;BME280_temperature;BME280_humidity;BME280_pressure;Samples;Min_cycle;Max_cycle;Signal;HPM_P1;HPM_P2
2022/03/30 00:04:50;;;;;;;7.13;2.40;;;;;;;3.54;53.34;100280.69;10332837;28;20092;-73
2022/03/30 00:09:50;;;;;;;7.60;2.50;;;;;;;3.81;54.48;100317.84;10348431;28;20034;-73
2022/03/30 00:14:51;;;;;;;6.40;1.90;;;;;;;3.77;54.52;100313.81;10347833;28;20422;-74
2022/03/30 00:19:52;;;;;;;7.35;2.67;;;;;;;3.86;54.45;100338.53;10350170;28;20061;-74
2022/03/30 00:24:53;;;;;;;7.45;2.95;;;;;;;2.87;54.56;100163.56;10373026;28;20053;-73
2022/03/30 00:29:54;;;;;;;6.63;3.03;;;;;;;3.00;54.59;100192.31;10373515;28;20494;-74
2022/03/30 00:34:55;;;;;;;5.85;2.85;;;;;;;2.93;54.21;100158.69;10373123;28;20125;-74
2022/03/30 00:39:56;;;;;;;9.13;2.80;;;;;;;3.37;54.63;100224.28;10371464;28;20499;-74
2022/03/30 00:44:57;;;;;;;9.68;3.33;;;;;;;3.81;55.05;100275.81;10372687;28;20049;-74
2022/03/30 00:49:57;;;;;;;9.60;3.63;;;;;;;3.80;55.27;100279.41;10373130;28;20501;-74
2022/03/30 00:54:59;;;;;;;7.07;3.38;;;;;;;4.19;55.81;100376.13;10372459;28;20053;-74
2022/03/30 01:00:01;;;;;;;9.05;2.63;;;;;;;3.63;56.22;100275.53;10342696;28;20076;-74
2022/03/30 01:05:01;;;;;;;23.50;7.75;;;;;;;4.07;55.55;100349.91;10332140;28;20046;-73
2022/03/30 01:10:08;;;;;;;35.90;11.32;;;;;;;3.94;56.48;100324.72;10332157;28;20049;-73
2022/03/30 01:15:12;;;;;;;37.50;16.20;;;;;;;4.09;55.90;100339.25;10331243;28;20039;-73
2022/03/30 01:20:17;;;;;;;40.20;15.30;;;;;;;3.76;56.73;100296.38;10331491;28;20469;-73
2022/03/30 01:25:18;;;;;;;24.02;9.18;;;;;;;3.34;56.49;100245.53;10331404;28;20053;-73
2022/03/30 01:35:40;;;;;;;16.48;6.75;;;;;;;3.70;56.46;100303.91;10330575;28;20065;-74
2022/03/30 01:40:41;;;;;;;10.98;4.55;;;;;;;3.97;56.03;100327.94;10331635;28;20080;-74
2022/03/30 01:45:42;;;;;;;12.85;5.47;;;;;;;3.86;56.04;100328.00;10330832;28;20077;-74
2022/03/30 01:50:43;;;;;;;13.93;6.18;;;;;;;3.86;56.45;100335.88;10329536;28;20057;-74
2022/03/30 01:55:45;;;;;;;11.40;5.13;;;;;;;3.93;56.30;100331.78;10331172;28;20061;-74
2022/03/30 02:00:46;;;;;;;22.80;8.35;;;;;;;3.48;56.11;100253.13;10345567;28;20502;-74
2022/03/30 02:05:47;;;;;;;17.58;8.35;;;;;;;3.77;56.83;100310.34;10330537;28;20112;-74
2022/03/30 02:10:48;;;;;;;11.15;5.28;;;;;;;3.62;57.09;100301.91;10331382;28;20572;-74
2022/03/30 02:15:49;;;;;;;16.98;7.47;;;;;;;2.37;57.48;100093.25;10336079;28;20510;-74
2022/03/30 02:20:50;;;;;;;24.70;9.65;;;;;;;3.19;58.66;100266.81;10337672;28;20062;-74
2022/03/30 02:25:50;;;;;;;34.08;10.02;;;;;;;3.48;58.68;100300.41;10336604;28;20046;-74
2022/03/30 02:30:51;;;;;;;23.60;9.52;;;;;;;2.76;58.98;100197.72;10337653;28;20100;-73
2022/03/30 02:35:53;;;;;;;23.20;9.50;;;;;;;3.45;59.63;100331.34;10336460;28;20125;-73
2022/03/30 02:40:53;;;;;;;23.08;8.82;;;;;;;3.07;59.88;100301.91;10337208;28;20038;-74
2022/03/30 02:45:54;;;;;;;26.58;8.00;;;;;;;2.42;60.46;100234.44;10336321;28;20042;-74
2022/03/30 02:50:57;;;;;;;18.75;6.57;;;;;;;2.47;61.31;100258.50;10336335;28;20038;-74
2022/03/30 02:55:58;;;;;;;20.27;6.35;;;;;;;1.64;61.08;100125.94;10334546;28;20058;-74
2022/03/30 03:00:59;;;;;;;14.15;5.97;;;;;;;1.91;61.44;100162.31;10334808;28;20034;-73
2022/03/30 03:06:00;;;;;;;14.73;5.45;;;;;;;2.66;61.17;100302.50;10336628;28;20038;-75
2022/03/30 03:11:01;;;;;;;26.80;5.68;;;;;;;2.94;60.88;100337.94;10367497;28;20042;-73
2022/03/30 03:16:02;;;;;;;14.90;5.47;;;;;;;2.89;60.68;100333.03;10361456;28;20038;-74
2022/03/30 03:21:03;;;;;;;21.20;6.30;;;;;;;2.94;61.04;100367.63;10363597;28;20053;-74
2022/03/30 03:26:04;;;;;;;17.17;5.53;;;;;;;1.29;61.77;100084.13;10358355;28;20498;-74
2022/03/30 03:31:05;;;;;;;15.35;5.30;;;;;;;3.04;61.64;100344.13;10358041;28;20073;-74
2022/03/30 03:36:05;;;;;;;11.57;5.10;;;;;;;2.74;61.28;100239.78;10359208;28;20054;-74
2022/03/30 03:41:06;;;;;;;10.73;4.43;;;;;;;3.73;61.00;100353.59;10363078;28;20045;-74
2022/03/30 03:46:07;;;;;;;10.02;4.05;;;;;;;3.03;59.93;100163.19;10369089;28;20044;-74
2022/03/30 03:51:08;;;;;;;9.45;3.40;;;;;;;3.99;59.19;100236.66;10374793;28;20045;-74
2022/03/30 03:56:09;;;;;;;9.63;3.53;;;;;;;5.26;58.43;100380.22;10373663;28;20045;-74
2022/03/30 04:01:10;;;;;;;13.73;4.22;;;;;;;5.71;57.72;100356.09;10372998;28;20124;-75
2022/03/30 04:06:11;;;;;;;11.80;3.95;;;;;;;5.41;56.99;100234.00;10366982;28;20491;-74
2022/03/30 04:11:13;;;;;;;12.85;3.75;;;;;;;6.65;56.37;100380.13;10365434;28;20038;-74
2022/03/30 04:16:16;;;;;;;12.07;4.18;;;;;;;6.87;56.17;100378.97;10348620;28;20067;-75
2022/03/30 04:21:16;;;;;;;42.58;5.60;;;;;;;7.07;55.73;100345.41;10359806;28;20065;-74
2022/03/30 04:26:17;;;;;;;17.92;4.07;;;;;;;7.26;55.16;100281.91;10346943;28;20058;-76
2022/03/30 04:31:18;;;;;;;16.77;4.35;;;;;;;7.42;54.90;100246.06;10348671;28;20413;-75
2022/03/30 04:36:19;;;;;;;8.45;3.92;;;;;;;8.19;54.45;100345.94;10368892;28;20053;-78
2022/03/30 04:41:20;;;;;;;8.57;3.47;;;;;;;7.90;53.97;100306.53;10340923;28;20129;-75
2022/03/30 04:46:21;;;;;;;10.20;3.90;;;;;;;8.02;54.11;100370.63;10345638;28;20042;-73
2022/03/30 04:51:22;;;;;;;16.98;4.13;;;;;;;6.19;53.93;100102.09;10368399;28;20640;-73
2022/03/30 04:56:24;;;;;;;10.70;3.45;;;;;;;7.58;53.94;100270.03;10369632;28;20199;-74
2022/03/30 05:01:24;;;;;;;12.85;4.10;;;;;;;6.29;53.00;100015.84;10357059;28;20034;-74
2022/03/30 05:06:26;;;;;;;12.10;4.40;;;;;;;8.76;51.52;100324.38;10360102;28;20057;-74
2022/03/30 05:11:26;;;;;;;18.83;5.00;;;;;;;9.38;50.78;100353.34;10356540;28;20057;-74
2022/03/30 05:16:28;;;;;;;13.82;5.20;;;;;;;9.54;50.10;100357.84;10359274;28;20062;-75
2022/03/30 05:21:30;;;;;;;11.20;4.70;;;;;;;9.07;49.68;100217.91;10356599;28;20050;-77
2022/03/30 05:26:31;;;;;;;10.10;5.53;;;;;;;9.99;48.98;100272.56;10357799;28;20050;-76
2022/03/30 05:31:32;;;;;;;14.52;5.35;;;;;;;10.70;48.27;100332.09;10357291;28;20046;-76
2022/03/30 05:36:33;;;;;;;11.57;5.65;;;;;;;10.91;46.44;100288.19;10361798;28;20136;-73
2022/03/30 05:41:34;;;;;;;15.35;5.68;;;;;;;10.71;45.64;100218.69;10370899;28;20037;-76
2022/03/30 05:46:36;;;;;;;16.70;6.63;;;;;;;10.39;45.69;100145.28;10352539;28;20162;-76
2022/03/30 05:51:37;;;;;;;17.90;6.30;;;;;;;11.75;44.34;100315.88;10366587;28;20455;-72
2022/03/30 06:01:58;;;;;;;17.80;7.32;;;;;;;11.36;42.17;100143.88;10348261;28;20039;-77
2022/03/30 06:07:00;;;;;;;16.98;7.18;;;;;;;12.95;42.36;100310.69;10337492;28;20072;-74
2022/03/30 06:12:03;;;;;;;15.20;7.55;;;;;;;13.27;40.75;100303.31;10337852;28;20038;-75
2022/03/30 06:17:06;;;;;;;12.02;5.35;;;;;;;13.16;38.57;100242.41;10336276;28;20505;-72
2022/03/30 06:22:10;;;;;;;11.18;4.50;;;;;;;12.98;36.80;100099.66;10337233;28;20486;-74
2022/03/30 06:27:12;;;;;;;8.65;4.53;;;;;;;14.80;35.55;100294.06;10351229;28;20042;-72
2022/03/30 06:32:13;;;;;;;10.68;4.35;;;;;;;14.72;35.24;100211.34;10335727;28;20046;-73
2022/03/30 06:37:13;;;;;;;9.20;4.10;;;;;;;14.55;34.24;100131.47;10336870;28;20050;-72
2022/03/30 06:42:16;;;;;;;15.13;4.47;;;;;;;15.21;34.36;100188.88;10335909;28;20042;-73
2022/03/30 06:47:17;;;;;;;12.20;4.05;;;;;;;15.28;34.54;100128.97;10336379;28;20046;-71
2022/03/30 06:52:18;;;;;;;7.15;3.53;;;;;;;16.24;33.22;100252.88;10330002;28;20137;-74
2022/03/30 06:57:20;;;;;;;7.03;3.65;;;;;;;15.64;33.57;100125.09;10335903;28;20072;-74
2022/03/30 07:02:21;;;;;;;12.55;4.30;;;;;;;16.75;33.35;100278.97;10336681;28;20514;-77
2022/03/30 07:12:45;;;;;;;21.70;3.50;;;;;;;17.34;32.63;100209.00;10335878;28;20070;-73
2022/03/30 07:17:47;;;;;;;9.30;3.35;;;;;;;15.53;32.10;99888.28;10336022;28;20053;-74
2022/03/30 07:22:49;;;;;;;6.13;2.08;;;;;;;17.74;31.49;100205.25;10333844;28;20054;-75
2022/03/30 07:27:52;;;;;;;3.75;1.80;;;;;;;16.72;30.38;99971.78;10332699;28;20041;-74
2022/03/30 07:32:55;;;;;;;3.10;1.20;;;;;;;17.92;29.51;100094.28;10333400;28;20046;-75
2022/03/30 07:37:56;;;;;;;2.70;1.23;;;;;;;16.93;28.98;99910.75;10333926;28;20047;-74
2022/03/30 07:42:57;;;;;;;4.55;1.90;;;;;;;18.09;29.12;100086.47;10333538;28;20141;-77
2022/03/30 07:47:57;;;;;;;1.88;0.98;;;;;;;19.10;28.00;100158.50;10332988;28;20521;-75
2022/03/30 07:52:58;;;;;;;4.20;1.40;;;;;;;18.40;27.76;99964.50;10333785;28;20144;-75
2022/03/30 07:57:59;;;;;;;8.27;1.50;;;;;;;18.32;27.12;99825.00;10331736;28;20038;-75
2022/03/30 08:03:01;;;;;;;4.13;1.17;;;;;;;19.22;26.10;99931.53;10331674;28;20047;-75
2022/03/30 08:08:02;;;;;;;4.35;1.38;;;;;;;21.03;25.02;100211.00;10333883;28;20046;-76
2022/03/30 08:13:03;;;;;;;10.60;4.15;;;;;;;20.60;25.43;100174.50;10332895;28;20375;-75
2022/03/30 08:18:06;;;;;;;7.00;3.88;;;;;;;18.31;25.42;99926.34;10332945;28;20046;-75
2022/03/30 08:23:08;;;;;;;8.27;3.00;;;;;;;19.92;26.74;100254.94;10333817;28;20093;-75
2022/03/30 08:28:09;;;;;;;6.18;2.00;;;;;;;19.38;26.34;100157.06;10348278;28;20050;-75
2022/03/30 08:33:10;;;;;;;6.13;2.05;;;;;;;19.78;27.09;100224.69;10331145;28;20038;-74
2022/03/30 08:38:11;;;;;;;17.95;8.98;;;;;;;18.22;26.74;99923.16;10332919;28;20069;-75
2022/03/30 08:43:12;;;;;;;7.05;3.83;;;;;;;19.25;26.73;100071.91;10332758;28;20510;-75
2022/03/30 08:48:13;;;;;;;5.78;2.40;;;;;;;18.33;27.19;99918.84;10330975;28;20049;-75
2022/03/30 08:53:15;;;;;;;5.47;2.63;;;;;;;19.28;27.34;100076.84;10332052;28;20498;-74
2022/03/30 08:58:16;;;;;;;4.85;2.40;;;;;;;19.52;26.94;100039.16;10330554;28;20128;-74
2022/03/30 09:03:17;;;;;;;8.75;2.95;;;;;;;20.71;26.74;100139.41;10331438;28;20578;-74
2022/03/30 09:08:25;;;;;;;8.70;2.65;;;;;;;20.69;26.36;100192.78;10330367;28;20080;-74
2022/03/30 09:13:26;;;;;;;9.80;3.92;;;;;;;19.08;27.13;99974.03;10331061;28;20046;-76
2022/03/30 09:18:27;;;;;;;6.38;2.42;;;;;;;19.80;26.85;100071.66;10330181;28;20038;-74
2022/03/30 09:23:28;;;;;;;7.88;3.20;;;;;;;19.85;26.89;100070.94;10335441;28;20594;-74
2022/03/30 09:28:28;;;;;;;6.45;3.30;;;;;;;17.38;26.89;99718.06;10354484;28;20410;-75
2022/03/30 09:33:29;;;;;;;8.15;2.92;;;;;;;19.44;26.84;100010.69;10339660;28;20049;-74
2022/03/30 09:38:37;;;;;;;7.30;2.67;;;;;;;19.63;26.04;100014.09;10338932;28;20050;-74
2022/03/30 09:43:41;;;;;;;6.30;2.55;;;;;;;19.54;26.34;99954.34;10339483;28;20050;-73
2022/03/30 09:48:50;;;;;;;8.65;3.00;;;;;;;19.25;25.37;99834.13;10337068;28;20039;-74
2022/03/30 09:53:51;;;;;;;7.13;3.25;;;;;;;19.48;25.44;99858.31;10336672;28;20054;-76
2022/03/30 09:59:00;;;;;;;8.13;3.58;;;;;;;20.48;25.26;99935.19;10338379;28;20042;-74
2022/03/30 10:04:04;;;;;;;4.93;3.05;;;;;;;19.36;25.46;99704.03;10374959;28;20041;-77
2022/03/30 10:09:05;;;;;;;6.78;2.78;;;;;;;20.90;24.68;99902.44;10385659;28;20132;-76
2022/03/30 10:14:06;;;;;;;9.77;3.20;;;;;;;21.22;24.92;99953.16;10385895;28;20141;-75
2022/03/30 10:19:08;;;;;;;5.72;3.45;;;;;;;21.17;24.34;99990.88;10385274;28;20493;-75
2022/03/30 10:24:42;;;;;;;6.22;3.45;;;;;;;21.70;24.43;100118.47;10418628;28;20045;-75
2022/03/30 10:29:52;;;;;;;7.97;3.38;;;;;;;19.74;24.42;99848.06;10418557;28;20046;-75
2022/03/30 10:35:05;;;;;;;8.07;3.90;;;;;;;21.58;24.35;100108.56;10416307;28;20034;-75
2022/03/30 10:40:14;;;;;;;11.57;3.88;;;;;;;21.39;25.08;100099.88;10347513;28;20281;-74
2022/03/30 10:45:18;;;;;;;11.10;3.90;;;;;;;21.03;24.25;100102.97;10336300;28;20042;-73
2022/03/30 10:50:35;;;;;;;15.07;3.80;;;;;;;20.93;25.55;100082.03;10336067;28;20053;-74
2022/03/30 10:55:38;;;;;;;10.15;3.47;;;;;;;20.63;24.90;100031.00;10336359;28;20050;-75
2022/03/30 11:00:40;;;;;;;7.40;3.30;;;;;;;19.73;25.03;99870.69;10352126;28;20189;-73
2022/03/30 11:05:46;;;;;;;8.77;3.20;;;;;;;21.04;25.62;100070.34;10336012;28;20069;-75
2022/03/30 11:10:48;;;;;;;8.05;3.50;;;;;;;21.26;25.11;100083.13;10335710;28;20170;-74
2022/03/30 11:16:03;;;;;;;13.82;3.50;;;;;;;21.39;24.23;100080.16;10335587;28;20050;-74
2022/03/30 11:21:17;;;;;;;9.10;3.72;;;;;;;21.48;24.54;100081.38;10336083;28;20066;-75
2022/03/30 11:26:18;;;;;;;8.13;3.65;;;;;;;21.32;24.43;100063.25;10335365;28;20185;-74
2022/03/30 11:31:23;;;;;;;6.15;3.53;;;;;;;21.28;24.74;100060.22;10349170;28;20125;-75
2022/03/30 11:36:25;;;;;;;6.82;3.75;;;;;;;20.86;24.43;99994.97;10338019;28;20140;-74
2022/03/30 11:41:26;;;;;;;11.70;3.65;;;;;;;21.26;24.26;100073.13;10334714;28;20038;-75
2022/03/30 11:46:30;;;;;;;6.07;3.03;;;;;;;20.93;24.55;100028.84;10333907;28;20049;-74
2022/03/30 11:51:32;;;;;;;;;;;;;;;21.40;24.79;100073.69;10346272;28;20069;-74
2022/03/30 11:56:33;;;;;;;6.15;3.25;;;;;;;21.01;24.48;100061.91;10336874;28;20271;-75
2022/03/30 12:01:35;;;;;;;8.82;3.45;;;;;;;21.20;24.60;100063.31;10342807;28;20519;-75
2022/03/30 12:06:45;;;;;;;7.10;3.72;;;;;;;21.67;24.47;100081.94;10341488;28;20046;-72
2022/03/30 12:11:46;;;;;;;7.97;3.35;;;;;;;20.98;24.29;100007.31;10345336;28;20153;-72
2022/03/30 12:16:47;;;;;;;8.13;3.35;;;;;;;20.88;24.33;100004.47;10372085;28;20042;-74
2022/03/30 12:21:48;;;;;;;7.47;3.60;;;;;;;20.47;24.64;99955.13;10372650;28;20107;-71
2022/03/30 12:26:58;;;;;;;8.20;4.13;;;;;;;21.25;24.73;100087.72;10334435;28;20038;-73
2022/03/30 12:32:02;;;;;;;12.00;4.20;;;;;;;21.01;24.78;100081.63;10333317;28;20043;-73
2022/03/30 12:37:09;;;;;;;7.25;3.78;;;;;;;20.91;24.87;100087.69;10355298;28;20046;-76
2022/03/30 12:42:17;;;;;;;7.10;3.58;;;;;;;20.56;24.83;100081.59;10368543;28;20045;-75
2022/03/30 12:47:34;;;;;;;10.75;4.40;;;;;;;20.63;25.18;100114.66;10353745;28;20127;-74
2022/03/30 12:52:42;;;;;;;12.05;4.22;;;;;;;20.52;25.86;100097.44;10356290;28;20050;-76
2022/03/30 12:57:50;;;;;;;19.45;4.07;;;;;;;20.51;25.75;100126.28;10349653;28;20042;-75
2022/03/30 13:03:12;;;;;;;8.13;4.43;;;;;;;20.37;25.83;100122.22;10332348;28;20046;-75
2022/03/30 13:08:19;;;;;;;6.55;3.40;;;;;;;19.41;26.23;100021.91;10337000;28;20144;-75
2022/03/30 13:13:23;;;;;;;14.27;4.20;;;;;;;19.47;25.61;100049.81;10342557;28;20046;-73
2022/03/30 13:18:24;;;;;;;8.13;5.28;;;;;;;19.08;26.23;100007.16;10345698;28;20051;-74
2022/03/30 13:23:39;;;;;;;10.35;6.35;;;;;;;19.80;25.92;100135.50;10348848;28;20062;-73
2022/03/30 13:28:40;;;;;;;6.88;3.90;;;;;;;18.64;26.25;99960.81;10341076;28;20050;-72
2022/03/30 13:33:41;;;;;;;15.20;4.05;;;;;;;19.51;26.48;100116.47;10347169;28;20457;-72
2022/03/30 13:38:47;;;;;;;8.32;3.55;;;;;;;19.14;26.65;100075.41;10330870;28;20038;-75
2022/03/30 13:43:50;;;;;;;10.07;4.10;;;;;;;18.59;27.04;99992.97;10332167;28;20049;-73
2022/03/30 13:48:52;;;;;;;14.50;4.00;;;;;;;19.21;26.93;100119.22;10343767;28;20046;-75
2022/03/30 13:53:54;;;;;;;10.63;3.60;;;;;;;19.26;27.48;100131.97;10365301;28;20041;-75
2022/03/30 13:58:55;;;;;;;15.88;3.40;;;;;;;18.27;27.74;100013.88;10364221;28;20133;-75
2022/03/30 14:03:56;;;;;;;7.15;2.55;;;;;;;18.55;28.28;100096.72;10335908;28;20054;-74
2022/03/30 14:08:57;;;;;;;11.48;3.00;;;;;;;17.56;28.30;99975.00;10335704;28;20386;-73
2022/03/30 14:13:58;;;;;;;10.43;2.90;;;;;;;18.43;28.34;100146.94;10337841;28;20421;-74
2022/03/30 14:18:59;;;;;;;12.40;3.10;;;;;;;17.84;29.22;100092.75;10336843;28;20046;-73
2022/03/30 14:24:00;;;;;;;12.07;2.58;;;;;;;17.84;29.61;100124.16;10337772;28;20565;-76
2022/03/30 14:29:01;;;;;;;15.55;3.92;;;;;;;16.20;30.24;99901.38;10336794;28;20076;-75
2022/03/30 14:34:02;;;;;;;12.93;2.85;;;;;;;16.42;30.60;99968.88;10355538;28;20132;-74
2022/03/30 14:39:03;;;;;;;9.05;2.65;;;;;;;17.24;31.08;100135.34;10365218;28;20421;-75
2022/03/30 14:44:04;;;;;;;11.15;3.00;;;;;;;16.78;31.05;100085.44;10354005;28;20097;-73
2022/03/30 14:49:05;;;;;;;14.35;3.33;;;;;;;16.98;31.33;100141.69;10372659;28;20056;-73
2022/03/30 14:54:06;;;;;;;10.98;3.50;;;;;;;16.95;31.47;100164.41;10361872;28;20056;-73
2022/03/30 14:59:07;;;;;;;11.00;2.72;;;;;;;15.11;31.71;99894.97;10360967;28;20128;-73
2022/03/30 15:04:08;;;;;;;6.72;3.13;;;;;;;15.88;32.08;100045.16;10357574;28;20133;-73
2022/03/30 15:09:09;;;;;;;6.13;2.97;;;;;;;16.31;32.33;100147.28;10378612;28;20054;-74
2022/03/30 15:14:10;;;;;;;9.90;3.05;;;;;;;15.85;32.59;100109.84;10382243;28;20045;-74
2022/03/30 15:19:11;;;;;;;10.18;3.13;;;;;;;15.61;32.79;100082.66;10361462;28;20087;-75
2022/03/30 15:24:12;;;;;;;10.95;2.42;;;;;;;14.54;33.48;99982.81;10363758;28;20490;-75
2022/03/30 15:29:15;;;;;;;12.05;2.45;;;;;;;14.74;33.38;100017.56;10360696;28;20394;-76
2022/03/30 15:34:20;;;;;;;7.22;2.78;;;;;;;14.23;33.81;99971.78;10371007;28;20427;-75
2022/03/30 15:39:23;;;;;;;10.30;3.10;;;;;;;15.30;34.24;100179.63;10382438;28;20049;-73
2022/03/30 15:44:24;;;;;;;13.25;4.53;;;;;;;13.68;34.65;99969.09;10388489;28;20042;-73
2022/03/30 15:49:25;;;;;;;19.02;5.75;;;;;;;13.37;35.28;99956.19;10374014;28;20132;-76
2022/03/30 15:54:26;;;;;;;16.10;3.97;;;;;;;13.80;36.16;100065.47;10359460;28;20050;-76
2022/03/30 15:59:28;;;;;;;12.07;3.13;;;;;;;12.45;36.20;99882.47;10366350;28;20517;-76
2022/03/30 16:04:28;;;;;;;9.40;3.85;;;;;;;13.23;36.53;100036.09;10351095;28;20038;-76
2022/03/30 16:09:35;;;;;;;31.80;5.55;;;;;;;14.13;37.25;100221.41;10353049;28;20410;-77
2022/03/30 16:20:52;;;;;;;19.08;3.38;;;;;;;13.52;38.06;100212.25;10345878;28;20511;-72
2022/03/30 16:25:54;;;;;;;11.80;2.55;;;;;;;11.54;38.75;99916.63;10356017;28;20049;-75
2022/03/30 16:30:55;;;;;;;5.93;2.33;;;;;;;11.71;38.74;99965.97;10356625;28;20241;-73
2022/03/30 16:35:58;;;;;;;9.45;2.00;;;;;;;12.26;39.17;100067.66;10360108;28;20049;-71
2022/03/30 16:40:59;;;;;;;6.05;2.13;;;;;;;11.63;39.35;100001.47;10346588;28;20041;-71
2022/03/30 16:46:02;;;;;;;6.00;2.00;;;;;;;12.74;40.01;100203.94;10336341;28;20038;-73
2022/03/30 16:51:02;;;;;;;14.25;1.80;;;;;;;12.56;40.62;100169.69;10336931;28;20080;-71
2022/03/30 16:56:03;;;;;;;9.40;1.90;;;;;;;12.69;40.51;100215.19;10333648;28;20129;-72
2022/03/30 17:01:05;;;;;;;4.88;2.25;;;;;;;12.02;40.12;100122.84;10349104;28;20037;-72
2022/03/30 17:06:06;;;;;;;5.65;1.70;;;;;;;11.70;41.06;100113.34;10349212;28;20525;-74
2022/03/30 17:11:09;;;;;;;14.88;2.92;;;;;;;12.57;42.44;100308.09;10350886;28;20072;-74
2022/03/30 17:16:10;;;;;;;13.57;3.83;;;;;;;12.47;42.09;100307.50;10364091;28;20050;-72
2022/03/30 17:21:11;;;;;;;24.42;11.50;;;;;;;11.34;42.42;100137.09;10348396;28;20560;-70
2022/03/30 17:26:12;;;;;;;15.52;4.60;;;;;;;12.20;42.33;100305.41;10353678;28;20037;-70
2022/03/30 17:31:13;;;;;;;13.15;4.72;;;;;;;11.13;43.19;100156.38;10341544;28;20072;-70
2022/03/30 17:36:15;;;;;;;19.08;4.50;;;;;;;11.61;44.38;100276.72;10371274;28;20050;-71
2022/03/30 17:41:17;;;;;;;27.70;6.47;;;;;;;11.63;43.92;100277.38;10364968;28;20050;-73
2022/03/30 17:46:17;;;;;;;25.33;9.27;;;;;;;11.66;44.23;100316.91;10350375;28;20034;-71
2022/03/30 17:56:39;;;;;;;29.17;8.48;;;;;;;10.91;44.08;100198.66;10338962;28;20613;-73
2022/03/30 18:01:39;;;;;;;19.08;8.25;;;;;;;11.31;44.12;100303.16;10343912;28;20073;-72
2022/03/30 18:06:40;;;;;;;37.03;12.38;;;;;;;11.07;44.98;100288.16;10362667;28;20123;-72
2022/03/30 18:11:42;;;;;;;46.38;13.30;;;;;;;11.32;45.56;100350.03;10365668;28;20062;-73
2022/03/30 18:16:45;;;;;;;57.30;14.20;;;;;;;11.08;45.82;100332.34;10364574;28;20133;-73
2022/03/30 18:21:46;;;;;;;52.90;16.63;;;;;;;10.73;46.93;100341.56;10348980;28;20525;-72
2022/03/30 18:26:47;;;;;;;36.20;12.32;;;;;;;10.44;47.34;100321.69;10338213;28;20143;-71
2022/03/30 18:31:48;;;;;;;29.23;12.02;;;;;;;10.62;48.25;100356.03;10346426;28;20041;-71
2022/03/30 18:36:49;;;;;;;53.05;12.93;;;;;;;9.72;48.38;100217.16;10377843;28;20081;-72
2022/03/30 18:41:50;;;;;;;26.70;11.52;;;;;;;10.51;48.69;100370.47;10376918;28;20049;-73
2022/03/30 18:46:51;;;;;;;25.63;10.45;;;;;;;10.40;49.24;100367.31;10370620;28;20038;-72
2022/03/30 18:51:53;;;;;;;19.85;7.93;;;;;;;10.24;49.56;100350.38;10356127;28;20034;-72
2022/03/30 18:56:55;;;;;;;27.35;9.43;;;;;;;9.86;50.48;100311.19;10353477;28;20057;-72
2022/03/30 19:01:56;;;;;;;30.77;9.95;;;;;;;9.68;50.75;100324.59;10354638;28;20418;-72
2022/03/30 19:06:57;;;;;;;24.08;12.23;;;;;;;9.69;51.28;100379.28;10353241;28;20031;-71
2022/03/30 19:11:57;;;;;;;25.80;12.75;;;;;;;9.62;51.87;100370.31;10371413;28;20568;-72
2022/03/30 19:16:58;;;;;;;14.63;6.43;;;;;;;9.29;52.10;100339.22;10376037;28;20048;-72
2022/03/30 19:21:59;;;;;;;19.02;6.32;;;;;;;9.38;52.46;100372.72;10374615;28;20049;-72
2022/03/30 19:27:00;;;;;;;14.25;6.43;;;;;;;9.28;51.94;100369.38;10376220;28;20049;-72
2022/03/30 19:32:02;;;;;;;21.88;6.93;;;;;;;9.01;52.39;100341.25;10375654;28;20046;-72
2022/03/30 19:37:04;;;;;;;15.15;6.50;;;;;;;9.00;53.02;100376.66;10374935;28;20045;-72
2022/03/30 19:42:05;;;;;;;18.20;7.60;;;;;;;9.10;52.89;100388.00;10375291;28;20077;-71
2022/03/30 19:47:07;;;;;;;10.40;5.45;;;;;;;8.88;53.71;100405.28;10375753;28;20141;-73
2022/03/30 19:52:08;;;;;;;15.70;5.40;;;;;;;8.62;53.62;100373.47;10375735;28;20100;-72
2022/03/30 19:57:09;;;;;;;13.48;5.10;;;;;;;8.71;54.05;100402.66;10374706;28;20073;-72
2022/03/30 20:02:10;;;;;;;6.97;2.92;;;;;;;8.38;54.29;100391.78;10374418;28;20080;-72
2022/03/30 20:07:12;;;;;;;13.68;4.13;;;;;;;8.26;54.28;100409.72;10373468;28;20041;-72
2022/03/30 20:12:15;;;;;;;10.25;4.10;;;;;;;8.10;54.23;100386.53;10373331;28;20095;-72
2022/03/30 20:17:16;;;;;;;12.55;4.43;;;;;;;8.23;54.92;100426.72;10373939;28;20135;-72
2022/03/30 20:22:18;;;;;;;8.95;4.15;;;;;;;7.75;55.57;100369.69;10371596;28;20096;-72
2022/03/30 20:27:19;;;;;;;10.65;3.97;;;;;;;7.97;55.13;100389.56;10373249;28;20182;-72
2022/03/30 20:32:20;;;;;;;10.10;4.15;;;;;;;7.63;55.65;100344.44;10373556;28;20081;-72
2022/03/30 20:37:21;;;;;;;11.45;4.25;;;;;;;7.60;56.22;100384.38;10373103;28;20080;-72
2022/03/30 20:42:22;;;;;;;10.27;4.70;;;;;;;7.38;56.36;100384.78;10372651;28;20135;-72
2022/03/30 20:47:23;;;;;;;21.73;9.20;;;;;;;7.59;57.08;100411.78;10372217;28;20049;-72
2022/03/30 20:52:26;;;;;;;36.20;8.10;;;;;;;7.03;57.87;100322.91;10372421;28;20052;-73
2022/03/30 20:57:27;;;;;;;25.15;9.07;;;;;;;7.17;57.78;100401.69;10346445;28;20054;-72
2022/03/30 21:02:27;;;;;;;17.42;8.00;;;;;;;6.97;58.05;100371.88;10335757;28;20042;-72
2022/03/30 21:07:30;;;;;;;19.60;7.72;;;;;;;7.29;58.02;100408.44;10348316;28;20097;-72
2022/03/30 21:12:30;;;;;;;16.42;7.00;;;;;;;6.98;58.18;100376.16;10330345;28;20057;-72
2022/03/30 21:17:31;;;;;;;33.38;8.02;;;;;;;6.71;58.78;100329.41;10338464;28;20053;-72
2022/03/30 21:22:32;;;;;;;15.80;8.07;;;;;;;6.75;58.82;100378.31;10343699;28;20054;-72
2022/03/30 21:27:33;;;;;;;30.88;11.90;;;;;;;6.46;59.13;100340.56;10348917;28;20042;-72
2022/03/30 21:32:35;;;;;;;23.30;10.45;;;;;;;6.37;59.46;100339.59;10383312;28;20079;-72
2022/03/30 21:37:39;;;;;;;40.60;15.07;;;;;;;5.15;60.16;100131.00;10384859;28;20104;-73
2022/03/30 21:42:40;;;;;;;16.98;6.72;;;;;;;6.47;60.95;100380.03;10384957;28;20065;-72
2022/03/30 21:47:44;;;;;;;21.73;6.10;;;;;;;5.64;62.10;100262.72;10384973;28;20038;-72
2022/03/30 21:52:45;;;;;;;15.52;6.13;;;;;;;6.53;62.15;100421.69;10384686;28;20042;-72
2022/03/30 21:57:46;;;;;;;14.98;6.15;;;;;;;6.40;62.27;100424.63;10384925;28;20050;-72
2022/03/30 22:02:49;;;;;;;14.57;5.55;;;;;;;6.38;62.56;100423.09;10385500;28;20037;-72
2022/03/30 22:07:50;;;;;;;12.05;5.32;;;;;;;5.98;61.42;100376.53;10382812;28;20084;-72
2022/03/30 22:12:51;;;;;;;16.02;5.95;;;;;;;4.60;61.63;100132.44;10377611;28;20049;-72
2022/03/30 22:17:52;;;;;;;16.42;6.03;;;;;;;6.10;62.04;100398.34;10348274;28;20049;-72
2022/03/30 22:22:53;;;;;;;16.33;5.30;;;;;;;6.39;62.35;100441.41;10344446;28;20054;-72
2022/03/30 22:27:54;;;;;;;13.40;5.85;;;;;;;6.35;62.27;100453.22;10356676;28;20038;-72
2022/03/30 22:38:17;;;;;;;17.23;5.60;;;;;;;6.04;62.30;100446.38;10377822;28;20121;-72
2022/03/30 22:43:19;;;;;;;25.58;7.78;;;;;;;5.38;62.66;100352.81;10377074;28;20045;-72
2022/03/30 22:48:20;;;;;;;27.15;12.70;;;;;;;5.99;61.80;100470.53;10373285;28;20100;-72
2022/03/30 22:53:21;;;;;;;46.75;16.48;;;;;;;6.08;62.49;100468.88;10377883;28;20628;-73
2022/03/30 22:58:22;;;;;;;51.33;21.50;;;;;;;6.08;62.72;100484.69;10370634;28;20050;-72
2022/03/30 23:03:23;;;;;;;37.55;12.32;;;;;;;6.08;63.29;100482.91;10366104;28;20132;-72
2022/03/30 23:08:25;;;;;;;38.60;14.80;;;;;;;5.79;62.73;100453.78;10376785;28;20137;-72
2022/03/30 23:13:27;;;;;;;34.88;14.32;;;;;;;5.93;63.44;100498.25;10376923;28;20053;-72
2022/03/30 23:18:28;;;;;;;25.90;10.50;;;;;;;5.76;63.07;100475.13;10376454;28;20045;-72
2022/03/30 23:23:31;;;;;;;33.95;11.13;;;;;;;5.49;63.63;100468.66;10376399;28;20061;-72
2022/03/30 23:28:32;;;;;;;43.13;8.32;;;;;;;5.37;63.80;100480.25;10357905;28;20038;-72
2022/03/30 23:33:33;;;;;;;16.70;6.10;;;;;;;5.36;64.10;100457.50;10333776;28;20038;-72
2022/03/30 23:38:34;;;;;;;15.02;5.85;;;;;;;5.55;63.91;100485.72;10333670;28;20434;-72
2022/03/30 23:43:35;;;;;;;12.77;6.80;;;;;;;3.95;64.38;100214.25;10334792;28;20065;-72